Time;durP1;ratioP1;P1;durP2;ratioP2;P2;SDS_P1;SDS_P2;PMS_P1;PMS_P2;Temp;Humidity;BMP_temperature;BMP_pressure;BME280_temperature;BME280_humidity;BME280_pressure;Samples;Min_cycle;Max_cycle;Signal;HPM_P1;HPM_P2
2022/02/22 00:01:43;;;;;;;13.07;8.32;;;204.90;2252.80;;;;;;5078433;28;20032;-71
2022/02/22 00:04:09;;;;;;;12.82;7.00;;;204.90;2252.80;;;;;;5068525;28;20502;-72
2022/02/22 00:06:35;;;;;;;11.25;6.40;;;204.80;2252.80;;;;;;5058666;28;20033;-71
2022/02/22 00:09:01;;;;;;;10.57;6.25;;;204.80;2252.80;;;;;;5072537;28;20040;-71
2022/02/22 00:11:27;;;;;;;19.63;8.32;;;204.80;2252.80;;;;;;5067400;28;20028;-71
2022/02/22 00:13:53;;;;;;;11.75;7.10;;;204.80;2252.80;;;;;;5066566;28;20021;-72
2022/02/22 00:16:25;;;;;;;12.18;6.00;;;204.80;2252.80;;;;;;5055541;28;20043;-71
2022/02/22 00:18:50;;;;;;;11.40;5.75;;;204.80;2252.80;;;;;;5069961;28;20033;-71
2022/02/22 00:21:16;;;;;;;6.95;4.75;;;204.80;2252.80;;;;;;5055569;28;20035;-72
2022/02/22 00:23:42;;;;;;;6.60;4.18;;;204.90;2252.80;;;;;;5057613;28;20482;-71
2022/02/22 00:26:08;;;;;;;7.88;4.75;;;204.90;2252.80;;;;;;5057000;28;20095;-71
2022/02/22 00:28:34;;;;;;;8.68;4.72;;;205.00;2252.80;;;;;;5059093;28;20060;-71
2022/02/22 00:31:00;;;;;;;9.93;5.63;;;205.00;2252.80;;;;;;5072939;28;20090;-71
2022/02/22 00:33:28;;;;;;;13.18;6.82;;;205.00;2252.80;;;;;;5070913;28;20020;-72
2022/02/22 00:35:54;;;;;;;9.48;5.80;;;205.20;2252.80;;;;;;5065853;28;20502;-72
2022/02/22 00:38:21;;;;;;;9.55;5.65;;;205.00;2252.80;;;;;;5061619;28;20045;-72
2022/02/22 00:40:47;;;;;;;10.40;6.90;;;205.10;2252.80;;;;;;5068563;28;20762;-72
2022/02/22 00:43:16;;;;;;;16.65;6.45;;;205.10;2252.80;;;;;;5069204;28;20025;-71
2022/02/22 00:45:41;;;;;;;9.90;5.65;;;205.00;2252.80;;;;;;5051805;28;20745;-72
2022/02/22 00:48:07;;;;;;;7.40;4.78;;;205.00;2252.80;;;;;;5062567;28;20031;-72
2022/02/22 00:50:36;;;;;;;11.80;5.43;;;205.10;2252.80;;;;;;5082849;28;20394;-71
2022/02/22 00:53:07;;;;;;;6.93;5.18;;;205.00;2252.80;;;;;;5057861;28;20021;-72
2022/02/22 00:55:39;;;;;;;11.43;6.43;;;205.00;2252.80;;;;;;5051162;28;20028;-71
2022/02/22 00:58:06;;;;;;;12.32;5.57;;;205.10;2252.80;;;;;;5076546;28;20041;-72
2022/02/22 01:00:31;;;;;;;8.55;5.80;;;205.00;2252.80;;;;;;5064129;28;20028;-71
2022/02/22 01:02:57;;;;;;;10.45;4.78;;;205.00;2252.80;;;;;;5058808;28;20041;-72
2022/02/22 01:05:23;;;;;;;14.10;6.90;;;205.00;2252.80;;;;;;5068345;28;20037;-72
2022/02/22 01:07:48;;;;;;;12.95;5.22;;;205.00;2252.80;;;;;;5059768;28;20044;-72
2022/02/22 01:10:14;;;;;;;9.50;5.53;;;205.00;2252.80;;;;;;5059373;28;20075;-72
2022/02/22 01:12:40;;;;;;;8.90;4.90;;;205.10;2252.80;;;;;;5062574;28;20098;-72
2022/02/22 01:15:10;;;;;;;9.15;4.72;;;205.00;2252.80;;;;;;5056736;28;20068;-72
2022/02/22 01:17:38;;;;;;;9.30;5.18;;;205.00;2252.80;;;;;;5065705;28;20031;-71
2022/02/22 01:20:08;;;;;;;6.82;4.50;;;205.10;2252.80;;;;;;5054556;28;20021;-71
2022/02/22 01:22:37;;;;;;;13.00;6.45;;;205.10;2252.80;;;;;;5061518;28;20028;-71
2022/02/22 01:25:30;;;;;;;8.43;5.28;;;205.00;2252.80;;;;;;5056389;28;20044;-71
2022/02/22 01:28:09;;;;;;;9.63;4.95;;;205.00;2252.80;;;;;;5063842;28;20032;-71
2022/02/22 01:30:34;;;;;;;11.82;5.20;;;205.00;2252.80;;;;;;5063413;28;20048;-71
2022/02/22 01:33:00;;;;;;;10.20;5.10;;;205.00;2252.80;;;;;;5062004;28;20471;-71
2022/02/22 01:35:26;;;;;;;12.00;6.10;;;205.10;2252.80;;;;;;5068220;28;20036;-71
2022/02/22 01:37:52;;;;;;;7.60;5.32;;;205.00;2252.80;;;;;;5067546;28;20037;-71
2022/02/22 01:40:18;;;;;;;12.15;6.68;;;205.00;2252.80;;;;;;5070159;28;20479;-71
2022/02/22 01:42:44;;;;;;;11.95;6.60;;;205.00;2252.80;;;;;;5067576;28;20085;-71
2022/02/22 01:45:10;;;;;;;9.88;6.65;;;205.00;2252.80;;;;;;5069723;28;20439;-72
2022/02/22 01:47:36;;;;;;;11.25;5.90;;;205.00;2252.80;;;;;;5069384;28;20048;-71
2022/02/22 01:50:03;;;;;;;10.02;6.10;;;205.00;2252.80;;;;;;5063633;28;20480;-71
2022/02/22 01:52:30;;;;;;;7.78;4.80;;;204.90;2252.80;;;;;;5066141;28;20028;-71
2022/02/22 01:54:55;;;;;;;12.90;5.85;;;204.90;2252.80;;;;;;5066906;28;20035;-71
2022/02/22 01:57:22;;;;;;;15.30;6.28;;;204.90;2252.80;;;;;;5068511;28;20025;-71
2022/02/22 01:59:49;;;;;;;12.73;5.22;;;204.90;2252.80;;;;;;5070240;28;20024;-72
2022/02/22 02:02:15;;;;;;;9.93;5.32;;;204.80;2252.80;;;;;;5063365;28;20031;-72
2022/02/22 02:04:41;;;;;;;9.43;5.70;;;204.80;2252.80;;;;;;5064977;28;20122;-72
2022/02/22 02:07:07;;;;;;;13.40;6.32;;;204.80;2252.80;;;;;;5069624;28;20132;-72
2022/02/22 02:09:33;;;;;;;10.45;6.05;;;204.80;2252.80;;;;;;5063582;28;20530;-72
2022/02/22 02:12:02;;;;;;;7.88;5.68;;;204.80;2252.80;;;;;;5061614;28;20488;-72
2022/02/22 02:14:28;;;;;;;11.18;5.53;;;204.80;2252.80;;;;;;5061907;28;20074;-72
2022/02/22 02:16:56;;;;;;;9.50;6.40;;;180.10;2252.80;;;;;;5064918;28;20074;-72
2022/02/22 02:19:23;;;;;;;10.60;5.57;;;180.10;2252.80;;;;;;5080631;28;20032;-72
2022/02/22 02:21:50;;;;;;;10.32;5.90;;;204.80;2252.80;;;;;;5066002;28;20021;-72
2022/02/22 02:24:21;;;;;;;9.15;5.70;;;180.10;2252.80;;;;;;5064238;28;20021;-72
2022/02/22 02:26:48;;;;;;;8.68;6.03;;;180.00;2252.80;;;;;;5065215;28;20097;-71
2022/02/22 02:29:16;;;;;;;10.52;5.43;;;180.00;2252.80;;;;;;5066651;28;20037;-71
2022/02/22 02:31:44;;;;;;;9.40;5.97;;;180.10;2252.80;;;;;;5070324;28;20036;-72
2022/02/22 02:34:13;;;;;;;8.45;5.03;;;180.10;2252.80;;;;;;5060738;28;20024;-72
2022/02/22 02:36:39;;;;;;;8.40;5.57;;;180.00;2252.80;;;;;;5065488;28;20055;-72
2022/02/22 02:39:07;;;;;;;9.90;6.10;;;180.00;2252.80;;;;;;5061284;28;20017;-72
2022/02/22 02:41:33;;;;;;;10.10;6.38;;;180.00;2252.80;;;;;;5069839;28;20388;-71
2022/02/22 02:44:05;;;;;;;9.48;6.05;;;180.00;2252.80;;;;;;5067995;28;20027;-71
2022/02/22 02:46:31;;;;;;;8.95;5.68;;;179.90;2252.80;;;;;;5069894;28;20017;-71
2022/02/22 02:48:57;;;;;;;7.43;5.07;;;180.00;2252.80;;;;;;5065083;28;20738;-72
2022/02/22 02:51:23;;;;;;;11.50;5.90;;;179.90;2252.80;;;;;;5061866;28;20047;-72
2022/02/22 02:53:53;;;;;;;10.00;6.72;;;180.00;2252.80;;;;;;5063179;28;20036;-71
2022/02/22 02:56:25;;;;;;;10.82;6.28;;;179.90;2252.80;;;;;;5062564;28;20151;-71
2022/02/22 02:59:02;;;;;;;12.07;6.60;;;179.90;2252.80;;;;;;5070154;28;20028;-71
2022/02/22 03:01:30;;;;;;;13.50;7.22;;;179.90;2252.80;;;;;;5061015;28;20047;-71
2022/02/22 03:03:56;;;;;;;11.25;6.03;;;179.80;2252.80;;;;;;5063306;28;20025;-72
2022/02/22 03:06:22;;;;;;;12.82;7.00;;;179.80;2252.80;;;;;;5064959;28;20040;-71
2022/02/22 03:08:48;;;;;;;9.40;6.32;;;179.70;2252.80;;;;;;5068314;28;20029;-72
2022/02/22 03:11:14;;;;;;;14.65;7.22;;;179.70;2252.80;;;;;;5068955;28;20033;-71
2022/02/22 03:13:41;;;;;;;13.63;7.45;;;179.70;2252.80;;;;;;5061126;28;20082;-71
2022/02/22 03:16:08;;;;;;;15.10;6.82;;;179.70;2252.80;;;;;;5057726;28;20029;-72
2022/02/22 03:18:34;;;;;;;12.23;8.35;;;179.70;2252.80;;;;;;5062537;28;20079;-72
2022/02/22 03:21:00;;;;;;;14.23;8.60;;;179.60;2252.80;;;;;;5065000;28;20475;-71
2022/02/22 03:23:26;;;;;;;11.70;8.63;;;179.60;2252.80;;;;;;5067661;28;20024;-72
2022/02/22 03:25:52;;;;;;;13.48;8.63;;;179.50;2252.80;;;;;;5063766;28;20476;-72
2022/02/22 03:28:18;;;;;;;13.52;7.30;;;179.50;2252.80;;;;;;5063227;28;20017;-72
2022/02/22 03:30:45;;;;;;;14.05;8.32;;;179.50;2252.80;;;;;;5066138;28;20091;-72
2022/02/22 03:33:11;;;;;;;12.63;7.47;;;179.50;2252.80;;;;;;5066632;28;20025;-72
2022/02/22 03:35:38;;;;;;;13.35;7.53;;;179.40;2252.80;;;;;;5063556;28;20067;-72
2022/02/22 03:38:04;;;;;;;15.75;9.10;;;179.40;2252.80;;;;;;5065004;28;20429;-71
2022/02/22 03:40:30;;;;;;;12.40;7.70;;;179.50;2252.80;;;;;;5062378;28;20115;-72
2022/02/22 03:42:57;;;;;;;14.63;8.25;;;179.50;2252.80;;;;;;5063220;28;20481;-72
2022/02/22 03:45:23;;;;;;;14.88;8.48;;;179.50;2252.80;;;;;;5061593;28;20028;-72
2022/02/22 03:47:49;;;;;;;12.10;8.02;;;179.50;2252.80;;;;;;5066639;28;20460;-72
2022/02/22 03:50:16;;;;;;;14.90;8.20;;;179.40;2252.80;;;;;;5063620;28;20047;-72
2022/02/22 03:52:42;;;;;;;14.50;9.35;;;179.40;2252.80;;;;;;5057741;28;20137;-72
2022/02/22 03:55:10;;;;;;;17.73;9.73;;;179.40;2252.80;;;;;;5063474;28;20043;-71
2022/02/22 03:57:36;;;;;;;14.05;8.85;;;179.40;2252.80;;;;;;5064285;28;20021;-72
2022/02/22 04:00:05;;;;;;;12.35;8.88;;;179.30;2252.80;;;;;;5065528;28;20051;-71
2022/02/22 04:02:31;;;;;;;21.52;10.60;;;179.30;2252.80;;;;;;5068271;28;20028;-71
2022/02/22 04:04:58;;;;;;;14.23;9.25;;;179.20;2252.80;;;;;;5059386;28;20032;-72
2022/02/22 04:07:25;;;;;;;13.52;8.93;;;154.50;2252.80;;;;;;5059802;28;20020;-71
2022/02/22 04:09:50;;;;;;;13.75;8.30;;;154.50;2252.80;;;;;;5065661;28;20127;-71
2022/02/22 04:12:17;;;;;;;15.02;8.73;;;154.40;2252.80;;;;;;5063595;28;20543;-71
2022/02/22 04:15:20;;;;;;;16.45;8.88;;;154.40;2252.80;;;;;;5058752;28;20119;-71
2022/02/22 04:17:46;;;;;;;11.90;8.75;;;154.40;2252.80;;;;;;5066269;28;20079;-72
2022/02/22 04:20:12;;;;;;;12.57;8.27;;;154.40;2252.80;;;;;;5065586;28;20450;-72
2022/02/22 04:22:38;;;;;;;13.20;8.35;;;154.40;2252.80;;;;;;5062165;28;20058;-72
2022/02/22 04:25:06;;;;;;;14.45;8.32;;;154.30;2252.80;;;;;;5063695;28;20107;-72
2022/02/22 04:27:32;;;;;;;18.40;7.70;;;154.40;2252.80;;;;;;5060715;28;20555;-73
2022/02/22 04:29:58;;;;;;;11.02;6.70;;;154.30;2252.80;;;;;;5065175;28;20364;-72
2022/02/22 04:32:24;;;;;;;13.23;7.28;;;154.40;2252.80;;;;;;5064981;28;20035;-72
2022/02/22 04:34:49;;;;;;;14.65;8.90;;;154.40;2252.80;;;;;;5063995;28;20197;-73
2022/02/22 04:37:16;;;;;;;12.15;6.40;;;154.30;2252.80;;;;;;5056772;28;20456;-72
2022/02/22 04:39:44;;;;;;;9.95;6.38;;;154.40;2252.80;;;;;;5063718;28;20021;-72
2022/02/22 04:42:10;;;;;;;10.93;7.18;;;154.30;2252.80;;;;;;5063506;28;20035;-72
2022/02/22 04:44:35;;;;;;;10.32;6.82;;;154.30;2252.80;;;;;;5059999;28;20021;-72
2022/02/22 04:47:01;;;;;;;15.98;7.43;;;154.40;2252.80;;;;;;5060824;28;20048;-72
2022/02/22 04:49:27;;;;;;;11.15;6.78;;;154.30;2252.80;;;;;;5067321;28;20024;-72
2022/02/22 04:51:52;;;;;;;10.45;5.93;;;154.30;2252.80;;;;;;5067375;28;20028;-71
2022/02/22 04:54:18;;;;;;;11.93;5.30;;;154.30;2252.80;;;;;;5063927;28;20020;-72
2022/02/22 04:56:44;;;;;;;12.43;6.22;;;154.30;2252.80;;;;;;5063587;28;20078;-72
2022/02/22 04:59:10;;;;;;;9.55;5.18;;;154.30;2252.80;;;;;;5065458;28;20132;-74
2022/02/22 05:01:35;;;;;;;7.85;4.97;;;154.30;2252.80;;;;;;5061368;28;20021;-72
2022/02/22 05:04:01;;;;;;;9.73;5.85;;;154.30;2252.80;;;;;;5067941;28;20396;-71
2022/02/22 05:06:27;;;;;;;9.30;5.65;;;154.40;2252.80;;;;;;5066491;28;20044;-72
2022/02/22 05:08:52;;;;;;;10.82;4.40;;;154.40;2252.80;;;;;;5067325;28;20805;-73
2022/02/22 05:11:18;;;;;;;9.50;5.50;;;154.40;2252.80;;;;;;5063757;28;20029;-73
2022/02/22 05:13:44;;;;;;;16.73;5.68;;;154.40;2252.80;;;;;;5071307;28;20476;-71
2022/02/22 05:16:10;;;;;;;7.78;4.15;;;154.40;2252.80;;;;;;5064794;28;20050;-72
2022/02/22 05:18:36;;;;;;;6.93;3.95;;;154.40;2252.80;;;;;;5064650;28;20464;-72
2022/02/22 05:21:02;;;;;;;9.75;4.85;;;154.40;2252.80;;;;;;5070147;28;20021;-72
2022/02/22 05:23:35;;;;;;;8.32;5.60;;;154.40;2252.80;;;;;;5062176;28;20518;-72
2022/02/22 05:26:02;;;;;;;12.75;6.22;;;154.40;2252.80;;;;;;5069214;28;20028;-71
2022/02/22 05:28:28;;;;;;;11.13;7.05;;;154.40;2252.80;;;;;;5062541;28;20107;-71
2022/02/22 05:30:54;;;;;;;10.40;6.43;;;154.40;2252.80;;;;;;5062958;28;20096;-71
2022/02/22 05:33:21;;;;;;;7.55;5.22;;;154.40;2252.80;;;;;;5066064;28;20032;-71
2022/02/22 05:35:48;;;;;;;9.73;5.70;;;154.40;2252.80;;;;;;5061769;28;20116;-71
2022/02/22 05:38:14;;;;;;;8.98;5.18;;;154.40;2252.80;;;;;;5066856;28;20106;-71
2022/02/22 05:40:40;;;;;;;7.82;5.53;;;154.40;2252.80;;;;;;5059263;28;20021;-71
2022/02/22 05:43:06;;;;;;;9.23;5.28;;;154.50;2252.80;;;;;;5064329;28;20090;-73
2022/02/22 05:45:32;;;;;;;12.50;5.65;;;154.40;2252.80;;;;;;5063629;28;20028;-72
2022/02/22 05:47:58;;;;;;;11.45;7.50;;;154.40;2252.80;;;;;;5068607;28;20534;-71
2022/02/22 05:50:24;;;;;;;13.23;6.20;;;154.50;2252.80;;;;;;5068111;28;20128;-71
2022/02/22 05:52:52;;;;;;;8.88;5.35;;;154.40;2252.80;;;;;;5059728;28;20017;-72
2022/02/22 05:55:18;;;;;;;8.55;5.22;;;154.40;2252.80;;;;;;5065979;28;21641;-71
2022/02/22 05:57:44;;;;;;;11.05;6.75;;;154.40;2252.80;;;;;;5066318;28;20024;-71
2022/02/22 06:00:10;;;;;;;8.90;6.28;;;154.40;2252.80;;;;;;5067549;28;20024;-71
2022/02/22 06:02:37;;;;;;;10.02;5.13;;;154.40;2252.80;;;;;;5062904;28;20029;-71
2022/02/22 06:05:03;;;;;;;10.15;6.20;;;154.40;2252.80;;;;;;5066274;28;20113;-72
2022/02/22 06:07:29;;;;;;;9.55;5.38;;;154.40;2252.80;;;;;;5067902;28;20514;-71
2022/02/22 06:09:55;;;;;;;11.40;5.43;;;154.40;2252.80;;;;;;5067932;28;20033;-71
2022/02/22 06:12:21;;;;;;;10.75;6.13;;;154.40;2252.80;;;;;;5068290;28;20024;-71
2022/02/22 06:14:47;;;;;;;11.50;5.90;;;154.40;2252.80;;;;;;5063228;28;20021;-71
2022/02/22 06:17:13;;;;;;;9.75;6.75;;;154.40;2252.80;;;;;;5063397;28;20033;-71
2022/02/22 06:19:39;;;;;;;12.32;7.05;;;154.40;2252.80;;;;;;5068557;28;20090;-71
2022/02/22 06:22:05;;;;;;;9.45;5.80;;;154.40;2252.80;;;;;;5067450;28;20016;-71
2022/02/22 06:24:31;;;;;;;7.78;5.50;;;154.40;2252.80;;;;;;5064514;28;20032;-71
2022/02/22 06:26:56;;;;;;;11.18;6.13;;;154.40;2252.80;;;;;;5062347;28;20111;-72
2022/02/22 06:29:23;;;;;;;10.60;5.97;;;154.40;2252.80;;;;;;5065510;28;20025;-71
2022/02/22 06:31:50;;;;;;;8.65;5.82;;;154.40;2252.80;;;;;;5066184;28;20028;-72
2022/02/22 06:34:17;;;;;;;8.43;5.15;;;154.40;2252.80;;;;;;5053340;28;20039;-71
2022/02/22 06:36:43;;;;;;;7.97;5.10;;;154.40;2252.80;;;;;;5062048;28;20037;-72
2022/02/22 06:39:08;;;;;;;11.57;6.05;;;154.40;2252.80;;;;;;5069529;28;20071;-72
2022/02/22 06:41:34;;;;;;;8.07;4.93;;;154.40;2252.80;;;;;;5061358;28;20025;-72
2022/02/22 06:44:00;;;;;;;11.20;7.03;;;154.40;2252.80;;;;;;5063572;28;20484;-72
2022/02/22 06:46:26;;;;;;;11.85;6.20;;;154.40;2252.80;;;;;;5060781;28;20028;-72
2022/02/22 06:48:52;;;;;;;10.60;5.40;;;154.50;2252.80;;;;;;5059468;28;20035;-72
2022/02/22 06:51:17;;;;;;;9.45;5.35;;;179.20;2252.80;;;;;;5064880;28;20029;-72
2022/02/22 06:53:43;;;;;;;11.57;6.38;;;179.20;2252.80;;;;;;5060598;28;20484;-72
2022/02/22 06:56:09;;;;;;;9.98;6.00;;;179.30;2252.80;;;;;;5072736;28;20039;-72
2022/02/22 06:58:35;;;;;;;8.35;4.97;;;179.30;2252.80;;;;;;5071587;28;20028;-72
2022/02/22 07:01:01;;;;;;;12.40;5.35;;;179.30;2252.80;;;;;;5065576;28;20554;-72
2022/02/22 07:03:26;;;;;;;15.50;6.60;;;179.30;2252.80;;;;;;5062510;28;20062;-72
2022/02/22 07:05:52;;;;;;;8.05;4.70;;;179.30;2252.80;;;;;;5058177;28;20035;-72
2022/02/22 07:08:18;;;;;;;9.45;5.72;;;179.40;2252.80;;;;;;5064246;28;20038;-72
2022/02/22 07:10:44;;;;;;;10.73;6.20;;;179.40;2252.80;;;;;;5070899;28;20064;-72
2022/02/22 07:13:10;;;;;;;13.15;6.40;;;179.40;2252.80;;;;;;5059370;28;20024;-72
2022/02/22 07:15:36;;;;;;;11.88;5.68;;;179.40;2252.80;;;;;;5063997;28;20038;-72
2022/02/22 07:18:13;;;;;;;13.70;6.47;;;179.40;2252.80;;;;;;5062968;28;20036;-73
2022/02/22 07:20:39;;;;;;;12.00;6.20;;;179.40;2252.80;;;;;;5061146;28;20022;-72
2022/02/22 07:23:05;;;;;;;9.57;5.72;;;179.50;2252.80;;;;;;5064273;28;20025;-72
2022/02/22 07:25:32;;;;;;;12.85;7.55;;;179.50;2252.80;;;;;;5059280;28;20027;-72
2022/02/22 07:27:59;;;;;;;13.00;7.97;;;179.50;2252.80;;;;;;5064189;28;20391;-73
2022/02/22 07:30:25;;;;;;;14.55;6.72;;;179.60;2252.80;;;;;;5061427;28;20527;-72
2022/02/22 07:32:55;;;;;;;12.27;6.80;;;179.70;2252.80;;;;;;5062297;28;20059;-72
2022/02/22 07:35:21;;;;;;;10.70;7.45;;;179.70;2252.80;;;;;;5063380;28;20102;-72
2022/02/22 07:37:46;;;;;;;12.70;5.97;;;179.80;2252.80;;;;;;5064944;28;20033;-72
2022/02/22 07:40:16;;;;;;;13.93;6.65;;;179.90;2252.80;;;;;;5063044;28;20024;-72
2022/02/22 07:42:42;;;;;;;11.98;6.40;;;180.00;2252.80;;;;;;5064034;28;20025;-72
2022/02/22 07:45:09;;;;;;;12.43;6.63;;;204.80;2252.80;;;;;;5063025;28;20016;-73
2022/02/22 07:47:35;;;;;;;11.02;6.85;;;205.00;2252.80;;;;;;5065486;28;20101;-72
2022/02/22 07:50:00;;;;;;;12.57;7.07;;;205.20;2252.80;;;;;;5064765;28;20459;-72
2022/02/22 07:52:27;;;;;;;16.15;8.52;;;205.40;2252.80;;;;;;5063880;28;20032;-72
2022/02/22 07:54:53;;;;;;;15.43;8.63;;;205.70;2252.80;;;;;;5065705;28;20059;-72
2022/02/22 07:57:19;;;;;;;11.25;6.60;;;230.50;2252.80;;;;;;5061061;28;20052;-72
2022/02/22 07:59:45;;;;;;;13.73;5.55;;;230.70;2252.80;;;;;;5065874;28;20028;-72
2022/02/22 08:02:11;;;;;;;9.38;5.90;;;230.80;2252.80;;;;;;5064627;28;20020;-72
2022/02/22 08:04:39;;;;;;;10.48;5.55;;;231.00;2252.80;;;;;;5063005;28;20058;-72
2022/02/22 08:07:05;;;;;;;11.30;5.90;;;231.30;2252.80;;;;;;5064737;28;20032;-73
2022/02/22 08:09:31;;;;;;;11.57;5.38;;;256.00;2252.80;;;;;;5065463;28;20515;-72
2022/02/22 08:11:56;;;;;;;11.52;5.72;;;256.20;2252.80;;;;;;5067519;28;20029;-72
2022/02/22 08:14:22;;;;;;;9.95;4.85;;;256.20;2252.80;;;;;;5064750;28;20222;-72
2022/02/22 08:16:48;;;;;;;12.27;5.22;;;256.20;2252.80;;;;;;5067375;28;20558;-72
2022/02/22 08:19:14;;;;;;;10.18;5.25;;;256.30;2252.80;;;;;;5061869;28;20035;-72
2022/02/22 08:21:40;;;;;;;7.20;4.38;;;256.80;2252.80;;;;;;5061544;28;20021;-72
2022/02/22 08:24:06;;;;;;;7.57;5.18;;;281.60;2278.40;;;;;;5065055;28;20372;-72
2022/02/22 08:26:31;;;;;;;8.70;4.78;;;281.70;2278.40;;;;;;5063552;28;20023;-72
2022/02/22 08:28:57;;;;;;;8.07;5.55;;;282.00;2278.40;;;;;;5063683;28;20558;-72
2022/02/22 08:31:25;;;;;;;9.88;4.80;;;282.30;2278.40;;;;;;5062018;28;20021;-72
2022/02/22 08:33:52;;;;;;;10.20;4.90;;;282.50;2278.40;;;;;;5060622;28;20446;-72
2022/02/22 08:36:18;;;;;;;8.40;3.80;;;282.50;2278.40;;;;;;5063916;28;20044;-72
2022/02/22 08:38:44;;;;;;;10.52;5.95;;;282.30;2278.40;;;;;;5062427;28;20029;-72
2022/02/22 08:41:09;;;;;;;11.20;4.80;;;282.30;2278.40;;;;;;5061697;28;20021;-72
2022/02/22 08:43:35;;;;;;;9.27;4.80;;;282.10;2278.40;;;;;;5060215;28;20029;-73
2022/02/22 08:46:01;;;;;;;6.53;4.50;;;282.30;2278.40;;;;;;5061916;28;20056;-72
2022/02/22 08:48:28;;;;;;;6.82;4.28;;;282.30;2278.40;;;;;;5061997;28;20064;-72
2022/02/22 08:50:54;;;;;;;7.10;4.60;;;282.30;2278.40;;;;;;5062067;28;20035;-72
2022/02/22 08:53:20;;;;;;;12.52;5.15;;;282.20;2278.40;;;;;;5065130;28;20616;-72
2022/02/22 08:55:46;;;;;;;9.70;4.68;;;282.10;2278.40;;;;;;5059638;28;20111;-72
2022/02/22 08:58:13;;;;;;;9.43;5.93;;;282.10;2278.40;;;;;;5062662;28;20112;-72
2022/02/22 09:00:39;;;;;;;13.07;4.85;;;281.90;2278.40;;;;;;5063432;28;20486;-73
2022/02/22 09:03:05;;;;;;;7.50;4.25;;;282.10;2278.40;;;;;;5059432;28;20499;-74
2022/02/22 09:05:33;;;;;;;13.07;5.35;;;282.20;2278.40;;;;;;5062218;28;20039;-72
2022/02/22 09:07:59;;;;;;;6.55;4.00;;;282.20;2278.40;;;;;;5061788;28;20419;-72
2022/02/22 09:10:25;;;;;;;8.95;4.85;;;282.50;2278.40;;;;;;5066708;28;20063;-72
2022/02/22 09:12:51;;;;;;;11.57;5.57;;;282.50;2278.40;;;;;;5064793;28;20033;-73
2022/02/22 09:15:18;;;;;;;9.60;4.95;;;307.20;2304.00;;;;;;5064556;28;20035;-73
2022/02/22 09:17:45;;;;;;;10.80;5.90;;;307.40;2304.00;;;;;;5062458;28;20057;-73
2022/02/22 09:20:14;;;;;;;8.88;4.97;;;307.80;2304.00;;;;;;5064569;28;20020;-72
2022/02/22 09:22:39;;;;;;;13.02;5.90;;;308.00;2304.00;;;;;;5058107;28;20480;-72
2022/02/22 09:25:07;;;;;;;10.60;4.82;;;308.00;2304.00;;;;;;5065153;28;20031;-72
2022/02/22 09:27:33;;;;;;;12.98;5.72;;;308.10;2304.00;;;;;;5062429;28;20037;-73
2022/02/22 09:29:59;;;;;;;12.50;5.63;;;333.30;2329.60;;;;;;5063580;28;20071;-73
2022/02/22 09:32:25;;;;;;;9.23;5.57;;;333.40;2329.60;;;;;;5066217;28;20078;-72
2022/02/22 09:34:51;;;;;;;7.07;4.78;;;333.60;2329.60;;;;;;5061271;28;20503;-72
2022/02/22 09:37:17;;;;;;;7.63;4.22;;;333.70;2329.60;;;;;;5063841;28;20163;-72
2022/02/22 09:39:44;;;;;;;8.23;4.38;;;333.20;2329.60;;;;;;5062479;28;20025;-72
2022/02/22 09:42:10;;;;;;;5.00;3.65;;;308.10;2304.00;;;;;;5063418;28;20056;-72
2022/02/22 09:44:37;;;;;;;5.90;4.13;;;333.10;2329.60;;;;;;5061837;28;20483;-73
2022/02/22 09:47:03;;;;;;;12.50;5.55;;;332.90;2329.60;;;;;;5061713;28;20021;-72
2022/02/22 09:49:30;;;;;;;10.63;5.18;;;333.00;2329.60;;;;;;5065888;28;20499;-72
2022/02/22 09:51:56;;;;;;;15.48;6.60;;;333.20;2329.60;;;;;;5063907;28;20028;-73
2022/02/22 09:54:23;;;;;;;10.88;5.60;;;333.00;2329.60;;;;;;5067413;28;20391;-72
2022/02/22 09:56:49;;;;;;;5.40;4.18;;;308.10;2304.00;;;;;;5067246;28;20024;-72
2022/02/22 09:59:16;;;;;;;7.85;4.85;;;307.70;2304.00;;;;;;5064881;28;20035;-72
2022/02/22 10:01:44;;;;;;;6.38;3.47;;;307.30;2304.00;;;;;;5067574;28;20044;-72
2022/02/22 10:04:10;;;;;;;6.85;4.28;;;307.90;2304.00;;;;;;5063887;28;20025;-72
2022/02/22 10:06:36;;;;;;;6.13;3.92;;;332.90;2329.60;;;;;;5066442;28;20033;-72
2022/02/22 10:09:04;;;;;;;7.40;4.72;;;333.10;2329.60;;;;;;5066301;28;20108;-73
2022/02/22 10:11:51;;;;;;;5.13;3.55;;;308.10;2304.00;;;;;;5068872;28;20056;-72
2022/02/22 10:14:20;;;;;;;8.30;4.60;;;333.30;2329.60;;;;;;5062623;28;20029;-72
2022/02/22 10:16:46;;;;;;;7.05;4.53;;;332.90;2329.60;;;;;;5065882;28;20028;-73
2022/02/22 10:19:15;;;;;;;11.05;5.18;;;333.50;2329.60;;;;;;5068950;28;20012;-72
2022/02/22 10:21:43;;;;;;;8.95;4.80;;;358.40;2329.60;;;;;;5065664;28;20016;-72
2022/02/22 10:24:12;;;;;;;5.03;3.78;;;358.40;2329.60;;;;;;5065419;28;20468;-72
2022/02/22 10:26:38;;;;;;;6.45;3.97;;;359.00;2329.60;;;;;;5064407;28;20045;-72
2022/02/22 10:29:19;;;;;;;5.97;3.50;;;358.60;2329.60;;;;;;5066283;28;20480;-72
2022/02/22 10:31:47;;;;;;;7.93;4.57;;;333.60;2329.60;;;;;;5064033;28;20033;-72
2022/02/22 10:34:13;;;;;;;6.30;4.55;;;333.70;2329.60;;;;;;5065556;28;20383;-73
2022/02/22 10:36:42;;;;;;;5.88;3.47;;;333.60;2329.60;;;;;;5064843;28;20626;-72
2022/02/22 10:39:12;;;;;;;6.38;4.50;;;333.30;2329.60;;;;;;5065144;28;20384;-72
2022/02/22 10:41:43;;;;;;;9.18;4.78;;;333.60;2329.60;;;;;;5066359;28;20096;-72
2022/02/22 10:44:11;;;;;;;7.30;4.53;;;358.50;2329.60;;;;;;5062282;28;20017;-72
2022/02/22 10:46:45;;;;;;;5.53;3.92;;;358.90;2329.60;;;;;;5066586;28;20012;-73
2022/02/22 10:49:16;;;;;;;9.00;5.40;;;358.40;2329.60;;;;;;5063271;28;20036;-72
2022/02/22 10:51:45;;;;;;;7.13;4.78;;;358.90;2329.60;;;;;;5060589;28;20048;-72
2022/02/22 10:54:19;;;;;;;7.18;5.40;;;333.60;2329.60;;;;;;5064526;28;20053;-71
2022/02/22 10:56:45;;;;;;;8.73;4.70;;;358.70;2329.60;;;;;;5068908;28;20024;-72
2022/02/22 10:59:11;;;;;;;5.82;3.65;;;358.90;2329.60;;;;;;5072175;28;20023;-72
2022/02/22 11:01:37;;;;;;;7.18;4.05;;;384.00;2329.60;;;;;;5069436;28;20111;-72
2022/02/22 11:04:04;;;;;;;7.80;4.30;;;359.30;2304.00;;;;;;5062459;28;20028;-72
2022/02/22 11:06:30;;;;;;;5.55;2.88;;;384.00;2304.00;;;;;;5069272;28;20035;-72
2022/02/22 11:08:57;;;;;;;7.00;3.17;;;384.60;2073.60;;;;;;5068265;28;20017;-72
2022/02/22 11:11:39;;;;;;;8.15;4.20;;;384.90;2048.00;;;;;;5068110;28;20093;-72
2022/02/22 11:14:14;;;;;;;7.38;3.58;;;384.40;2073.60;;;;;;5063201;28;20352;-72
2022/02/22 11:16:41;;;;;;;10.63;3.90;;;384.60;1996.80;;;;;;5060882;28;20548;-72
2022/02/22 11:19:20;;;;;;;6.60;3.58;;;409.70;2022.40;;;;;;5065256;28;20392;-73
2022/02/22 11:21:49;;;;;;;6.20;3.63;;;410.20;1894.40;;;;;;5082015;28;20375;-73
2022/02/22 11:24:18;;;;;;;11.98;3.65;;;384.60;1996.80;;;;;;5068823;28;20024;-72
2022/02/22 11:26:59;;;;;;;8.77;3.55;;;359.20;2176.00;;;;;;5068459;28;20029;-72
2022/02/22 11:29:28;;;;;;;7.30;3.03;;;359.00;2201.60;;;;;;5066083;28;20032;-72
2022/02/22 11:32:04;;;;;;;4.85;3.33;;;358.70;2329.60;;;;;;5066559;28;20016;-72
2022/02/22 11:34:32;;;;;;;6.80;3.60;;;333.20;2329.60;;;;;;5063104;28;20097;-72
2022/02/22 11:37:01;;;;;;;6.28;3.60;;;358.60;2329.60;;;;;;5066077;28;20103;-72
2022/02/22 11:39:27;;;;;;;17.75;5.65;;;384.00;2124.80;;;;;;5068307;28;20104;-73
2022/02/22 11:41:52;;;;;;;7.82;4.78;;;384.70;1971.20;;;;;;5066130;28;20387;-72
2022/02/22 11:44:21;;;;;;;14.23;5.57;;;358.70;2329.60;;;;;;5064035;28;20025;-73
2022/02/22 11:46:54;;;;;;;7.20;3.95;;;358.40;2329.60;;;;;;5062644;28;20021;-73
2022/02/22 11:49:32;;;;;;;17.20;4.88;;;333.20;2329.60;;;;;;5066192;28;20032;-73
2022/02/22 11:52:08;;;;;;;7.80;3.50;;;332.90;2329.60;;;;;;5064210;28;20013;-72
2022/02/22 11:54:34;;;;;;;8.27;3.85;;;332.90;2329.60;;;;;;5063347;28;20029;-72
2022/02/22 11:57:09;;;;;;;5.95;3.22;;;384.10;2124.80;;;;;;5063987;28;20064;-72
2022/02/22 11:59:50;;;;;;;7.75;4.28;;;410.10;1894.40;;;;;;5069198;28;20029;-72
2022/02/22 12:02:34;;;;;;;8.38;4.25;;;410.40;1843.20;;;;;;5082553;28;20031;-72
2022/02/22 12:05:01;;;;;;;6.95;4.25;;;384.30;1996.80;;;;;;5067055;28;20060;-72
2022/02/22 12:07:28;;;;;;;6.80;4.07;;;358.70;2329.60;;;;;;5064497;28;20032;-73
2022/02/22 12:09:56;;;;;;;8.18;5.32;;;358.90;2278.40;;;;;;5061249;28;20029;-72
2022/02/22 12:12:23;;;;;;;12.60;6.78;;;409.60;1945.60;;;;;;5060676;28;20033;-72
2022/02/22 12:14:53;;;;;;;5.90;3.90;;;435.70;1715.20;;;;;;5067105;28;20020;-72